Time;durP1;ratioP1;P1;durP2;ratioP2;P2;SDS_P1;SDS_P2;PMS_P1;PMS_P2;Temp;Humidity;BMP_temperature;BMP_pressure;BME280_temperature;BME280_humidity;BME280_pressure;Samples;Min_cycle;Max_cycle;Signal;HPM_P1;HPM_P2
2021/08/27 00:00:04;;;;;;;;;;;19.20;89.10;19.30;99387.00;;;;344601;28;89327;-93
2021/08/27 00:00:16;;;;;;;;;;;19.20;89.10;19.30;99392.00;;;;345477;28;86195;-94
2021/08/27 00:00:29;;;;;;;;;;;19.20;89.10;19.30;99391.00;;;;347300;28;90142;-94
2021/08/27 00:00:41;;;;;;;;;;;19.20;89.00;19.30;99390.00;;;;345628;28;89126;-93
2021/08/27 00:00:53;;;;;;;;;;;19.20;89.00;19.30;99395.00;;;;344577;28;90929;-94
2021/08/27 00:01:05;;;;;;;;;;;19.20;89.20;19.30;99387.00;;;;346720;28;87456;-93
2021/08/27 00:01:17;;;;;;;;;;;19.20;89.20;19.30;99393.00;;;;347357;28;89571;-93
2021/08/27 00:01:29;;;;;;;;;;;19.20;89.10;19.30;99392.00;;;;347142;28;88215;-93
2021/08/27 00:01:41;;;;;;;;;;;19.20;89.10;19.20;99395.00;;;;345890;28;89361;-94
2021/08/27 00:01:53;;;;;;;;;;;19.20;89.00;19.20;99389.00;;;;344309;28;87617;-94
2021/08/27 00:02:05;;;;;;;;;;;19.20;89.10;19.20;99387.00;;;;345970;28;88213;-93
2021/08/27 00:02:17;;;;;;;;;;;19.20;89.10;19.20;99390.00;;;;346715;28;87028;-93
2021/08/27 00:02:30;;;;;;;;;;;19.10;89.20;19.10;99388.00;;;;345845;28;89547;-93
2021/08/27 00:02:41;;;;;;;;;;;19.10;89.10;19.10;99392.00;;;;344358;28;86775;-94
2021/08/27 00:02:54;;;;;;;;;;;19.10;89.10;19.20;99381.00;;;;343212;28;90604;-93
2021/08/27 00:03:07;;;;;;;;;;;19.10;89.10;19.20;99388.00;;;;345650;28;88361;-93
2021/08/27 00:03:19;;;;;;;;;;;19.10;89.10;19.10;99393.00;;;;344513;28;89783;-94
2021/08/27 00:03:31;;;;;;;;;;;19.10;89.20;19.10;99388.00;;;;344246;28;88151;-93
2021/08/27 00:03:43;;;;;;;;;;;19.10;89.30;19.10;99388.00;;;;345879;28;91065;-93
2021/08/27 00:03:55;;;;;;;;;;;19.10;89.40;19.10;99392.00;;;;345805;28;87214;-93
2021/08/27 00:04:07;;;;;;;;;;;19.10;89.40;19.10;99392.00;;;;347290;28;90208;-93
2021/08/27 00:04:19;;;;;;;;;;;19.10;89.40;19.00;99398.00;;;;347034;28;88384;-93
2021/08/27 00:04:30;;;;;;;;;;;19.00;89.50;19.00;99390.00;;;;347328;28;89394;-93
2021/08/27 00:04:42;;;;;;;;;;;19.00;89.60;19.00;99389.00;;;;348442;27;88472;-93
2021/08/27 00:04:55;;;;;;;;;;;19.00;89.60;19.10;99391.00;;;;345885;28;89639;-93
2021/08/27 00:05:07;;;;;;;;;;;19.00;89.70;19.10;99390.00;;;;344096;28;87692;-92
2021/08/27 00:05:19;;;;;;;;;;;19.00;89.80;19.10;99387.00;;;;343994;28;90639;-93
2021/08/27 00:05:31;;;;;;;;;;;19.00;89.70;19.10;99386.00;;;;346292;28;88540;-93
2021/08/27 00:05:43;;;;;;;;;;;19.00;89.80;19.10;99397.00;;;;345866;28;90641;-93
2021/08/27 00:05:55;;;;;;;;;;;19.00;89.70;19.00;99391.00;;;;345687;28;87132;-93
2021/08/27 00:06:06;;;;;;;;;;;19.00;89.80;19.00;99391.00;;;;343224;28;90525;-93
2021/08/27 00:06:19;;;;;;;;;;;19.00;89.80;19.00;99390.00;;;;345929;28;86301;-94
2021/08/27 00:06:30;;;;;;;;;;;19.00;89.90;18.90;99383.00;;;;345886;28;90972;-94
2021/08/27 00:06:42;;;;;;;;;;;19.00;90.00;19.00;99385.00;;;;345710;28;86964;-92
2021/08/27 00:06:54;;;;;;;;;;;19.00;90.00;19.00;99387.00;;;;344502;28;91556;-93
2021/08/27 00:07:06;;;;;;;;;;;19.00;89.90;19.00;99391.00;;;;346985;28;87066;-93
2021/08/27 00:07:18;;;;;;;;;;;19.00;90.10;18.90;99394.00;;;;345930;28;89516;-93
2021/08/27 00:07:30;;;;;;;;;;;19.00;90.10;18.90;99390.00;;;;344300;28;86985;-93
2021/08/27 00:07:41;;;;;;;;;;;19.00;90.10;19.00;99384.00;;;;345664;28;90656;-94
2021/08/27 00:07:53;;;;;;;;;;;19.00;90.10;19.00;99387.00;;;;346931;28;88187;-94
2021/08/27 00:08:05;;;;;;;;;;;19.00;90.10;18.90;99384.00;;;;344595;28;90273;-93
2021/08/27 00:08:17;;;;;;;;;;;18.90;90.10;19.00;99388.00;;;;344887;28;87652;-93
2021/08/27 00:08:29;;;;;;;;;;;19.00;90.10;19.00;99384.00;;;;344509;28;90552;-93
2021/08/27 00:08:41;;;;;;;;;;;19.00;90.10;19.00;99387.00;;;;344343;28;87252;-93
2021/08/27 00:08:53;;;;;;;;;;;18.90;90.10;19.00;99384.00;;;;343187;28;91526;-93
2021/08/27 00:09:05;;;;;;;;;;;19.00;90.10;19.00;99386.00;;;;347004;28;87032;-94
2021/08/27 00:09:17;;;;;;;;;;;19.00;90.10;19.00;99388.00;;;;344759;28;90749;-94
2021/08/27 00:09:29;;;;;;;;;;;19.00;90.10;19.00;99378.00;;;;345637;28;88400;-93
2021/08/27 00:09:41;;;;;;;;;;;18.90;90.10;19.00;99384.00;;;;345919;28;91534;-93
2021/08/27 00:09:53;;;;;;;;;;;18.90;90.10;19.00;99388.00;;;;345654;28;87863;-93
2021/08/27 00:10:06;;;;;;;;;;;18.90;90.10;18.90;99386.00;;;;347397;28;89694;-93
2021/08/27 00:10:18;;;;;;;;;;;18.90;90.10;19.00;99386.00;;;;345757;28;88392;-94
2021/08/27 00:10:29;;;;;;;;;;;18.90;90.10;19.00;99389.00;;;;344540;28;89323;-93
2021/08/27 00:10:41;;;;;;;;;;;19.00;90.20;19.00;99382.00;;;;345709;28;88184;-93
2021/08/27 00:10:53;;;;;;;;;;;18.90;90.20;18.90;99387.00;;;;344406;28;89537;-94
2021/08/27 00:11:05;;;;;;;;;;;18.90;90.20;19.00;99378.00;;;;345616;28;88106;-92
2021/08/27 00:11:17;;;;;;;;;;;18.90;90.20;19.00;99382.00;;;;344089;28;90924;-93
2021/08/27 00:11:29;;;;;;;;;;;18.90;90.30;19.00;99390.00;;;;342921;28;87783;-94
2021/08/27 00:11:41;;;;;;;;;;;18.90;90.30;19.00;99384.00;;;;344346;28;89375;-94
2021/08/27 00:11:53;;;;;;;;;;;18.90;90.20;19.00;99387.00;;;;344276;28;87047;-94
2021/08/27 00:12:05;;;;;;;;;;;18.90;90.20;19.10;99389.00;;;;343256;28;89493;-94
2021/08/27 00:12:18;;;;;;;;;;;18.90;90.20;19.00;99382.00;;;;344549;28;86922;-93
2021/08/27 00:12:29;;;;;;;;;;;18.90;90.30;19.00;99383.00;;;;343108;28;89904;-93
2021/08/27 00:12:41;;;;;;;;;;;18.90;90.20;19.00;99381.00;;;;344312;28;88431;-92
2021/08/27 00:12:53;;;;;;;;;;;18.90;90.40;19.00;99386.00;;;;345894;28;89889;-93
2021/08/27 00:13:05;;;;;;;;;;;18.90;90.40;18.90;99383.00;;;;344199;28;86967;-94
2021/08/27 00:13:17;;;;;;;;;;;18.90;90.70;18.90;99380.00;;;;345967;28;90249;-93
2021/08/27 00:13:29;;;;;;;;;;;18.90;90.40;19.00;99382.00;;;;344337;28;87973;-93
2021/08/27 00:13:41;;;;;;;;;;;18.90;90.40;19.00;99382.00;;;;345997;28;90604;-93
2021/08/27 00:13:53;;;;;;;;;;;18.90;90.70;19.00;99387.00;;;;343923;28;88767;-92
2021/08/27 00:14:05;;;;;;;;;;;18.90;90.40;19.00;99389.00;;;;343174;28;90658;-93
2021/08/27 00:14:17;;;;;;;;;;;18.90;90.40;19.00;99385.00;;;;343872;28;86925;-94
2021/08/27 00:14:29;;;;;;;;;;;18.90;90.40;19.00;99391.00;;;;344292;28;91989;-93
2021/08/27 00:14:41;;;;;;;;;;;18.90;90.40;19.00;99382.00;;;;344433;28;86859;-93
2021/08/27 00:14:53;;;;;;;;;;;18.90;90.40;19.00;99379.00;;;;343097;28;90225;-94
2021/08/27 00:15:06;;;;;;;;;;;18.90;90.40;19.00;99393.00;;;;342973;28;86134;-93
2021/08/27 00:15:18;;;;;;;;;;;18.90;90.50;18.80;99392.00;;;;346328;28;89783;-93
2021/08/27 00:15:30;;;;;;;;;;;18.90;90.50;18.90;99384.00;;;;344249;28;88275;-93
2021/08/27 00:15:42;;;;;;;;;;;18.90;90.50;19.00;99391.00;;;;345917;28;90848;-94
2021/08/27 00:15:54;;;;;;;;;;;18.90;90.50;18.80;99386.00;;;;343949;28;88794;-94
2021/08/27 00:16:06;;;;;;;;;;;18.90;90.60;18.90;99389.00;;;;345927;28;90180;-93
2021/08/27 00:16:17;;;;;;;;;;;18.90;90.50;18.90;99391.00;;;;341536;28;89508;-93
2021/08/27 00:16:29;;;;;;;;;;;18.90;90.60;19.00;99382.00;;;;345918;28;89212;-92
2021/08/27 00:16:41;;;;;;;;;;;18.90;90.50;19.00;99386.00;;;;345740;28;88303;-93
2021/08/27 00:16:53;;;;;;;;;;;18.90;90.40;19.00;99380.00;;;;346030;28;89942;-93
2021/08/27 00:17:05;;;;;;;;;;;18.90;90.40;18.90;99383.00;;;;346956;28;87266;-93
2021/08/27 00:17:17;;;;;;;;;;;18.90;90.50;18.90;99380.00;;;;344830;28;90153;-93
2021/08/27 00:17:29;;;;;;;;;;;18.90;90.40;19.00;99381.00;;;;342870;28;87028;-93
2021/08/27 00:17:41;;;;;;;;;;;18.90;90.40;18.90;99384.00;;;;344512;28;89711;-93
2021/08/27 00:17:53;;;;;;;;;;;18.90;90.40;18.90;99380.00;;;;345601;28;87640;-93
2021/08/27 00:18:05;;;;;;;;;;;18.80;90.40;18.90;99386.00;;;;345943;28;89233;-93
2021/08/27 00:18:17;;;;;;;;;;;18.80;90.40;18.90;99388.00;;;;342891;28;87595;-93
2021/08/27 00:18:29;;;;;;;;;;;18.90;90.40;18.90;99392.00;;;;343057;28;90134;-92
2021/08/27 00:18:41;;;;;;;;;;;18.80;90.40;18.90;99386.00;;;;343015;28;86951;-93
2021/08/27 00:18:52;;;;;;;;;;;18.80;90.40;18.80;99396.00;;;;344536;28;89924;-94
2021/08/27 00:19:04;;;;;;;;;;;18.80;90.50;18.80;99383.00;;;;344287;28;88009;-93
2021/08/27 00:19:16;;;;;;;;;;;18.80;90.40;18.70;99388.00;;;;344529;28;89705;-93
2021/08/27 00:19:28;;;;;;;;;;;18.80;90.50;18.80;99390.00;;;;342758;28;86858;-93
2021/08/27 00:19:40;;;;;;;;;;;18.80;90.50;18.80;99391.00;;;;343243;28;90127;-92
2021/08/27 00:19:52;;;;;;;;;;;18.80;90.50;18.80;99382.00;;;;344267;28;88145;-94
2021/08/27 00:20:05;;;;;;;;;;;18.80;90.50;18.80;99387.00;;;;347334;28;89875;-93
2021/08/27 00:20:17;;;;;;;;;;;18.80;90.50;18.90;99380.00;;;;344261;28;87172;-93
2021/08/27 00:20:29;;;;;;;;;;;18.80;90.50;18.80;99389.00;;;;345947;28;91057;-94
2021/08/27 00:20:41;;;;;;;;;;;18.80;90.60;18.90;99382.00;;;;345558;28;87072;-94
2021/08/27 00:20:53;;;;;;;;;;;18.80;90.50;18.80;99388.00;;;;345950;28;90275;-94
2021/08/27 00:21:05;;;;;;;;;;;18.80;90.60;18.80;99389.00;;;;347009;27;86918;-93
2021/08/27 00:21:17;;;;;;;;;;;18.80;90.60;18.80;99390.00;;;;344497;28;89514;-94
2021/08/27 00:21:29;;;;;;;;;;;18.80;90.60;18.80;99390.00;;;;345745;28;87181;-93
2021/08/27 00:21:41;;;;;;;;;;;18.70;90.80;18.80;99391.00;;;;344547;28;91214;-93
2021/08/27 00:21:53;;;;;;;;;;;18.70;90.60;18.80;99386.00;;;;342902;28;87189;-93
2021/08/27 00:22:04;;;;;;;;;;;18.80;90.70;18.80;99388.00;;;;347280;28;90697;-93
2021/08/27 00:22:16;;;;;;;;;;;18.70;90.60;18.90;99391.00;;;;345755;28;88071;-93
2021/08/27 00:22:28;;;;;;;;;;;18.70;90.60;18.80;99385.00;;;;344375;28;88536;-94
2021/08/27 00:22:40;;;;;;;;;;;18.70;90.60;18.90;99388.00;;;;344338;28;86966;-94
2021/08/27 00:22:52;;;;;;;;;;;18.80;90.50;18.90;99385.00;;;;344565;28;90860;-94
2021/08/27 00:23:05;;;;;;;;;;;18.70;90.60;18.90;99381.00;;;;342900;28;87094;-93
2021/08/27 00:23:17;;;;;;;;;;;18.80;90.60;18.90;99382.00;;;;344337;28;89973;-93
2021/08/27 00:23:29;;;;;;;;;;;18.70;90.60;18.90;99382.00;;;;342856;28;90117;-93
2021/08/27 00:23:40;;;;;;;;;;;18.80;90.60;18.80;99388.00;;;;345978;28;89891;-93
2021/08/27 00:23:52;;;;;;;;;;;18.80;90.60;18.80;99391.00;;;;345632;28;88223;-94
2021/08/27 00:24:06;;;;;;;;;;;18.70;90.70;18.80;99389.00;;;;345909;28;90536;-93
2021/08/27 00:24:18;;;;;;;;;;;18.70;90.70;18.90;99388.00;;;;345649;28;86937;-93
2021/08/27 00:24:30;;;;;;;;;;;18.70;90.70;18.80;99384.00;;;;345687;28;91491;-93
2021/08/27 00:24:42;;;;;;;;;;;18.70;90.70;18.70;99390.00;;;;342989;28;87313;-93
2021/08/27 00:24:54;;;;;;;;;;;18.70;90.60;18.80;99386.00;;;;345893;28;90890;-93
2021/08/27 00:25:06;;;;;;;;;;;18.70;90.60;18.80;99382.00;;;;344201;28;88623;-93
2021/08/27 00:25:18;;;;;;;;;;;18.70;90.60;18.80;99384.00;;;;345871;28;90837;-93
2021/08/27 00:25:30;;;;;;;;;;;18.70;90.70;18.80;99382.00;;;;344198;28;88442;-94
2021/08/27 00:25:41;;;;;;;;;;;18.70;90.70;18.80;99387.00;;;;344587;28;91367;-94
2021/08/27 00:25:53;;;;;;;;;;;18.70;90.70;18.80;99381.00;;;;345592;28;88565;-93
2021/08/27 00:26:05;;;;;;;;;;;18.70;90.70;18.80;99386.00;;;;347331;28;88720;-94
2021/08/27 00:26:17;;;;;;;;;;;18.70;90.80;18.80;99389.00;;;;345473;28;87070;-94
2021/08/27 00:26:32;;;;;;;;;;;18.70;91.00;18.80;99387.00;;;;344428;28;90317;-94
2021/08/27 00:26:43;;;;;;;;;;;18.70;90.70;18.80;99378.00;;;;345336;28;88466;-94
2021/08/27 00:26:55;;;;;;;;;;;18.70;90.70;18.80;99385.00;;;;345890;28;91575;-93
2021/08/27 00:27:07;;;;;;;;;;;18.70;90.70;18.80;99388.00;;;;345583;28;88533;-94
2021/08/27 00:27:19;;;;;;;;;;;18.70;90.70;18.80;99385.00;;;;344363;28;90161;-94
2021/08/27 00:27:31;;;;;;;;;;;18.70;90.70;18.80;99387.00;;;;344241;28;88134;-93
2021/08/27 00:27:43;;;;;;;;;;;18.70;90.60;18.80;99386.00;;;;345831;28;88811;-93
2021/08/27 00:27:55;;;;;;;;;;;18.70;90.60;18.80;99388.00;;;;345632;28;87703;-93
2021/08/27 00:28:07;;;;;;;;;;;18.70;90.60;18.80;99387.00;;;;345896;28;90633;-93
2021/08/27 00:28:19;;;;;;;;;;;18.70;90.60;18.90;99380.00;;;;348242;27;87028;-93
2021/08/27 00:28:30;;;;;;;;;;;18.70;90.60;18.90;99384.00;;;;345868;28;89579;-93
2021/08/27 00:28:42;;;;;;;;;;;18.70;90.90;18.80;99381.00;;;;345778;28;87182;-93
2021/08/27 00:28:54;;;;;;;;;;;18.70;90.60;18.70;99382.00;;;;344575;28;89865;-93
2021/08/27 00:29:06;;;;;;;;;;;18.70;90.60;18.80;99381.00;;;;342940;28;86963;-93
2021/08/27 00:29:18;;;;;;;;;;;18.70;90.60;18.80;99388.00;;;;344095;28;91236;-94
2021/08/27 00:29:30;;;;;;;;;;;18.70;90.70;18.80;99389.00;;;;344437;28;88344;-94
2021/08/27 00:29:41;;;;;;;;;;;18.70;90.70;18.80;99381.00;;;;343030;28;89889;-94
2021/08/27 00:29:53;;;;;;;;;;;18.70;90.70;18.80;99380.00;;;;344321;28;88160;-92
2021/08/27 00:30:06;;;;;;;;;;;18.70;90.60;18.80;99388.00;;;;344479;28;90706;-93
2021/08/27 00:30:17;;;;;;;;;;;18.60;90.60;18.80;99383.00;;;;345591;28;87654;-93
2021/08/27 00:30:29;;;;;;;;;;;18.70;90.60;18.80;99388.00;;;;345877;28;90996;-93
2021/08/27 00:30:41;;;;;;;;;;;18.70;90.60;18.80;99385.00;;;;345728;28;88351;-93
2021/08/27 00:30:57;;;;;;;;;;;18.70;90.60;18.90;99390.00;;;;347312;28;90985;-93
2021/08/27 00:31:09;;;;;;;;;;;18.70;90.60;18.90;99385.00;;;;348328;27;87525;-93
2021/08/27 00:31:21;;;;;;;;;;;18.70;90.60;18.90;99380.00;;;;345840;28;90993;-92
2021/08/27 00:31:33;;;;;;;;;;;18.70;90.60;18.80;99386.00;;;;342969;28;88667;-94
2021/08/27 00:31:45;;;;;;;;;;;18.70;90.50;18.80;99389.00;;;;344570;28;89474;-93
2021/08/27 00:31:56;;;;;;;;;;;18.70;90.50;18.80;99385.00;;;;344364;28;86611;-94
2021/08/27 00:32:08;;;;;;;;;;;18.70;90.50;18.80;99385.00;;;;344581;28;90373;-93
2021/08/27 00:32:20;;;;;;;;;;;18.70;90.50;18.80;99380.00;;;;345159;28;87110;-93
2021/08/27 00:32:32;;;;;;;;;;;18.70;90.40;18.90;99382.00;;;;344581;28;91326;-93
2021/08/27 00:32:44;;;;;;;;;;;18.70;90.40;18.90;99388.00;;;;345730;28;87259;-94
2021/08/27 00:32:55;;;;;;;;;;;18.70;90.50;18.90;99383.00;;;;344111;28;88947;-94
2021/08/27 00:33:07;;;;;;;;;;;18.70;90.50;18.90;99386.00;;;;345648;28;87689;-93
2021/08/27 00:33:19;;;;;;;;;;;18.70;90.50;18.80;99386.00;;;;345110;28;90329;-93
2021/08/27 00:33:31;;;;;;;;;;;18.70;90.50;18.70;99382.00;;;;345630;28;87672;-94
2021/08/27 00:33:43;;;;;;;;;;;18.70;90.40;18.70;99376.00;;;;345906;28;89867;-93
2021/08/27 00:33:55;;;;;;;;;;;18.70;90.30;18.70;99381.00;;;;345652;28;88384;-93
2021/08/27 00:34:07;;;;;;;;;;;18.70;90.30;18.70;99380.00;;;;347336;28;90379;-93
2021/08/27 00:34:18;;;;;;;;;;;18.60;90.40;18.80;99385.00;;;;344267;28;88767;-93
2021/08/27 00:34:30;;;;;;;;;;;18.60;90.30;18.70;99383.00;;;;348531;27;89904;-93
2021/08/27 00:34:42;;;;;;;;;;;18.60;90.30;18.70;99388.00;;;;347020;28;87048;-94
2021/08/27 00:34:54;;;;;;;;;;;18.70;90.30;18.70;99388.00;;;;345912;28;90484;-94
2021/08/27 00:35:06;;;;;;;;;;;18.60;90.30;18.80;99381.00;;;;347021;28;87087;-93
2021/08/27 00:35:18;;;;;;;;;;;18.70;90.30;18.70;99387.00;;;;345316;28;90627;-93
2021/08/27 00:35:30;;;;;;;;;;;18.60;90.30;18.80;99392.00;;;;344135;28;87910;-93
2021/08/27 00:35:42;;;;;;;;;;;18.60;90.50;18.70;99385.00;;;;344546;28;91444;-93
2021/08/27 00:35:54;;;;;;;;;;;18.60;90.20;18.80;99387.00;;;;343959;28;88020;-93
2021/08/27 00:36:06;;;;;;;;;;;18.70;90.20;18.80;99383.00;;;;347150;28;89260;-93
2021/08/27 00:36:18;;;;;;;;;;;18.60;90.20;18.70;99390.00;;;;345924;28;88057;-93
2021/08/27 00:36:29;;;;;;;;;;;18.70;90.10;18.50;99381.00;;;;345775;28;91432;-95
2021/08/27 00:36:41;;;;;;;;;;;18.60;90.00;18.60;99384.00;;;;344148;28;87516;-92
2021/08/27 00:36:53;;;;;;;;;;;18.60;90.00;18.70;99379.00;;;;344561;28;91485;-93
2021/08/27 00:37:05;;;;;;;;;;;18.60;90.30;18.70;99380.00;;;;347040;28;87810;-94
2021/08/27 00:37:17;;;;;;;;;;;18.60;90.00;18.70;99385.00;;;;344434;28;90915;-93
2021/08/27 00:37:28;;;;;;;;;;;18.60;90.00;18.70;99382.00;;;;344254;28;87118;-93
2021/08/27 00:37:40;;;;;;;;;;;18.60;90.00;18.70;99387.00;;;;344466;28;90621;-93
2021/08/27 00:37:52;;;;;;;;;;;18.60;90.00;18.60;99384.00;;;;344292;28;87670;-94
2021/08/27 00:38:04;;;;;;;;;;;18.60;90.00;18.60;99392.00;;;;345999;28;88830;-93
2021/08/27 00:38:16;;;;;;;;;;;18.60;90.00;18.60;99387.00;;;;343996;28;86393;-93
2021/08/27 00:38:28;;;;;;;;;;;18.60;90.00;18.60;99389.00;;;;346050;27;91021;-94
2021/08/27 00:38:40;;;;;;;;;;;18.60;90.00;18.60;99381.00;;;;344446;28;88150;-92
2021/08/27 00:38:52;;;;;;;;;;;18.60;90.00;18.70;99386.00;;;;347509;28;90857;-93
2021/08/27 00:39:03;;;;;;;;;;;18.60;90.30;18.70;99385.00;;;;345895;28;88444;-94
2021/08/27 00:39:15;;;;;;;;;;;18.60;90.00;18.70;99391.00;;;;344341;28;91380;-93
2021/08/27 00:39:27;;;;;;;;;;;18.60;90.10;18.60;99382.00;;;;345968;28;87164;-93
2021/08/27 00:39:39;;;;;;;;;;;18.50;90.00;18.60;99390.00;;;;347532;28;91559;-93
2021/08/27 00:39:51;;;;;;;;;;;18.50;90.00;18.50;99377.00;;;;347130;28;88062;-94
2021/08/27 00:40:03;;;;;;;;;;;18.50;89.80;18.60;99388.00;;;;347621;28;89058;-93
2021/08/27 00:40:15;;;;;;;;;;;18.50;89.80;18.60;99384.00;;;;347306;28;88401;-93
2021/08/27 00:40:27;;;;;;;;;;;18.50;90.10;18.60;99386.00;;;;347471;28;89449;-94
2021/08/27 00:40:39;;;;;;;;;;;18.50;89.80;18.60;99389.00;;;;347238;28;87679;-93
2021/08/27 00:40:50;;;;;;;;;;;18.50;89.80;18.70;99390.00;;;;344726;28;90224;-93
2021/08/27 00:41:02;;;;;;;;;;;18.50;89.90;18.70;99390.00;;;;344540;28;87419;-94
2021/08/27 00:41:14;;;;;;;;;;;18.50;90.00;18.70;99386.00;;;;345806;28;90799;-94
2021/08/27 00:41:26;;;;;;;;;;;18.50;90.00;18.70;99383.00;;;;347156;28;87736;-94
2021/08/27 00:41:38;;;;;;;;;;;18.50;90.00;18.70;99378.00;;;;348895;27;89793;-93
2021/08/27 00:41:49;;;;;;;;;;;18.50;89.90;18.70;99383.00;;;;345306;28;86913;-93
2021/08/27 00:42:01;;;;;;;;;;;18.50;89.90;18.70;99389.00;;;;346216;28;90244;-93
2021/08/27 00:42:13;;;;;;;;;;;18.50;89.80;18.60;99384.00;;;;343143;28;87971;-93
2021/08/27 00:42:25;;;;;;;;;;;18.50;89.80;18.60;99387.00;;;;343247;28;91571;-94
2021/08/27 00:42:37;;;;;;;;;;;18.50;89.60;18.50;99383.00;;;;344528;28;87977;-93
2021/08/27 00:42:49;;;;;;;;;;;18.50;89.40;18.60;99385.00;;;;344786;28;90881;-93
2021/08/27 00:43:01;;;;;;;;;;;18.50;89.70;18.60;99385.00;;;;343107;28;87342;-93
2021/08/27 00:43:13;;;;;;;;;;;18.50;89.50;18.50;99380.00;;;;344439;28;89601;-95
2021/08/27 00:43:25;;;;;;;;;;;18.50;89.50;18.50;99383.00;;;;344497;28;87718;-93
2021/08/27 00:43:37;;;;;;;;;;;18.50;89.40;18.50;99384.00;;;;346155;28;91290;-93
2021/08/27 00:43:49;;;;;;;;;;;18.50;89.50;18.50;99380.00;;;;345774;28;88377;-93
2021/08/27 00:44:00;;;;;;;;;;;18.50;89.50;18.60;99381.00;;;;344884;28;88645;-93
2021/08/27 00:44:12;;;;;;;;;;;18.50;89.60;18.60;99382.00;;;;342995;28;88063;-94
2021/08/27 00:44:24;;;;;;;;;;;18.50;89.70;18.50;99384.00;;;;344979;28;91165;-93
2021/08/27 00:44:36;;;;;;;;;;;18.40;89.50;18.40;99381.00;;;;344314;28;87044;-94
2021/08/27 00:44:48;;;;;;;;;;;18.40;89.50;18.50;99374.00;;;;344611;28;89735;-92
2021/08/27 00:45:00;;;;;;;;;;;18.40;89.60;18.40;99387.00;;;;345971;28;86869;-94
2021/08/27 00:45:12;;;;;;;;;;;18.40;89.50;18.50;99382.00;;;;346218;28;89579;-94
2021/08/27 00:45:25;;;;;;;;;;;18.40;89.50;18.50;99387.00;;;;345891;28;87224;-92
2021/08/27 00:45:41;;;;;;;;;;;18.40;89.50;18.40;99385.00;;;;345979;28;90681;-94
2021/08/27 00:45:53;;;;;;;;;;;18.40;89.60;18.50;99387.00;;;;343122;28;87949;-93
2021/08/27 00:46:05;;;;;;;;;;;18.40;89.60;18.40;99380.00;;;;344812;28;90381;-94
2021/08/27 00:46:17;;;;;;;;;;;18.40;89.60;18.40;99387.00;;;;344474;28;88651;-93
2021/08/27 00:46:29;;;;;;;;;;;18.40;89.50;18.50;99378.00;;;;344686;28;89593;-93
2021/08/27 00:46:41;;;;;;;;;;;18.40;89.60;18.50;99384.00;;;;341361;28;88300;-93
2021/08/27 00:46:53;;;;;;;;;;;18.40;89.70;18.50;99387.00;;;;343368;28;91261;-92
2021/08/27 00:47:04;;;;;;;;;;;18.40;89.70;18.50;99386.00;;;;344528;28;86874;-93
2021/08/27 00:47:16;;;;;;;;;;;18.40;89.60;18.50;99380.00;;;;343579;28;90390;-93
2021/08/27 00:47:28;;;;;;;;;;;18.40;89.80;18.50;99382.00;;;;344525;28;87520;-94
2021/08/27 00:47:40;;;;;;;;;;;18.40;89.80;18.50;99378.00;;;;344852;28;89658;-93
2021/08/27 00:47:52;;;;;;;;;;;18.40;89.70;18.40;99381.00;;;;345569;28;87476;-93
2021/08/27 00:48:05;;;;;;;;;;;18.40;89.80;18.50;99384.00;;;;344783;28;90433;-93
2021/08/27 00:48:17;;;;;;;;;;;18.40;89.80;18.40;99385.00;;;;344474;28;86959;-93
2021/08/27 00:48:28;;;;;;;;;;;18.40;89.90;18.30;99380.00;;;;346078;28;90813;-94
2021/08/27 00:48:40;;;;;;;;;;;18.40;89.80;18.40;99379.00;;;;344335;28;87537;-93
2021/08/27 00:48:52;;;;;;;;;;;18.30;89.80;18.40;99381.00;;;;344567;28;91134;-93
2021/08/27 00:49:04;;;;;;;;;;;18.30;90.10;18.40;99383.00;;;;344523;28;88228;-93
2021/08/27 00:49:16;;;;;;;;;;;18.30;89.90;18.50;99379.00;;;;344717;28;89796;-94
2021/08/27 00:49:28;;;;;;;;;;;18.30;89.80;18.50;99384.00;;;;344477;28;88397;-93
2021/08/27 00:49:40;;;;;;;;;;;18.30;89.80;18.50;99382.00;;;;346153;28;91378;-94
2021/08/27 00:49:52;;;;;;;;;;;18.40;89.80;18.50;99384.00;;;;343158;28;87560;-93
2021/08/27 00:50:05;;;;;;;;;;;18.30;89.80;18.50;99383.00;;;;343440;28;88748;-93
2021/08/27 00:50:17;;;;;;;;;;;18.30;89.80;18.50;99380.00;;;;345357;28;87819;-93
2021/08/27 00:50:29;;;;;;;;;;;18.40;89.90;18.50;99378.00;;;;345510;28;89708;-93
2021/08/27 00:50:41;;;;;;;;;;;18.40;89.90;18.50;99383.00;;;;347307;28;87435;-94
2021/08/27 00:50:53;;;;;;;;;;;18.40;89.90;18.50;99391.00;;;;348601;27;89617;-94
2021/08/27 00:51:05;;;;;;;;;;;18.30;89.80;18.50;99387.00;;;;344268;28;86921;-94
2021/08/27 00:51:17;;;;;;;;;;;18.40;89.90;18.50;99378.00;;;;347434;28;90946;-94
2021/08/27 00:51:28;;;;;;;;;;;18.30;89.80;18.50;99374.00;;;;347123;28;86980;-94
2021/08/27 00:51:41;;;;;;;;;;;18.40;89.70;18.30;99380.00;;;;346055;28;91505;-95
2021/08/27 00:51:53;;;;;;;;;;;18.30;89.40;18.30;99381.00;;;;345873;28;86688;-93
2021/08/27 00:52:08;;;;;;;;;;;18.30;89.40;18.30;99384.00;;;;343448;28;89177;-93
2021/08/27 00:52:20;;;;;;;;;;;18.30;89.40;18.30;99380.00;;;;344638;28;87145;-93
2021/08/27 00:52:34;;;;;;;;;;;18.30;89.50;18.30;99381.00;;;;346062;28;90376;-92
2021/08/27 00:52:46;;;;;;;;;;;18.30;89.40;18.40;99384.00;;;;348730;27;87074;-94
2021/08/27 00:52:58;;;;;;;;;;;18.30;89.40;18.40;99382.00;;;;344763;28;89517;-92
2021/08/27 00:53:10;;;;;;;;;;;18.30;89.40;18.40;99384.00;;;;345861;28;87415;-93
2021/08/27 00:53:22;;;;;;;;;;;18.30;89.30;18.30;99376.00;;;;347203;28;89672;-93
2021/08/27 00:53:34;;;;;;;;;;;18.30;89.30;18.30;99377.00;;;;344229;28;87546;-93
2021/08/27 00:53:46;;;;;;;;;;;18.20;89.30;18.30;99377.00;;;;344423;28;89861;-94
2021/08/27 00:53:58;;;;;;;;;;;18.20;89.30;18.30;99379.00;;;;344544;28;86604;-93
2021/08/27 00:54:10;;;;;;;;;;;18.20;89.20;18.40;99388.00;;;;344799;28;87829;-94
2021/08/27 00:54:22;;;;;;;;;;;18.20;89.20;18.40;99381.00;;;;345666;28;87002;-93
2021/08/27 00:54:34;;;;;;;;;;;18.20;89.20;18.30;99387.00;;;;343392;28;89955;-93
2021/08/27 00:54:49;;;;;;;;;;;18.20;89.10;18.40;99375.00;;;;343080;28;87050;-93
2021/08/27 00:55:01;;;;;;;;;;;18.20;89.10;18.20;99385.00;;;;344647;28;91113;-93
2021/08/27 00:55:13;;;;;;;;;;;18.20;88.90;18.10;99379.00;;;;344506;28;88286;-92
2021/08/27 00:55:25;;;;;;;;;;;18.20;88.70;18.10;99383.00;;;;344824;28;90321;-94
2021/08/27 00:55:36;;;;;;;;;;;18.20;88.80;18.20;99382.00;;;;345881;28;86969;-92
2021/08/27 00:55:48;;;;;;;;;;;18.20;88.80;18.20;99378.00;;;;345999;28;91335;-94
2021/08/27 00:56:01;;;;;;;;;;;18.20;88.90;18.20;99378.00;;;;346004;28;87190;-93
2021/08/27 00:56:13;;;;;;;;;;;18.20;88.90;18.10;99385.00;;;;343393;28;90454;-93
2021/08/27 00:56:25;;;;;;;;;;;18.20;88.80;18.20;99378.00;;;;345801;28;87326;-93
2021/08/27 00:56:36;;;;;;;;;;;18.20;88.80;18.10;99379.00;;;;345934;28;90514;-93
2021/08/27 00:56:51;;;;;;;;;;;18.10;88.80;18.20;99387.00;;;;345505;28;86957;-93
2021/08/27 00:57:07;;;;;;;;;;;18.10;88.90;18.10;99378.00;;;;344673;28;91057;-93
2021/08/27 00:57:21;;;;;;;;;;;18.10;89.00;18.20;99384.00;;;;344938;28;87259;-93
2021/08/27 00:57:34;;;;;;;;;;;18.10;89.00;18.10;99385.00;;;;345800;28;91503;-93
2021/08/27 00:57:46;;;;;;;;;;;18.10;88.90;18.10;99385.00;;;;345836;28;86988;-94
2021/08/27 00:57:58;;;;;;;;;;;18.10;88.80;18.10;99377.00;;;;344678;28;91272;-93
2021/08/27 00:58:09;;;;;;;;;;;18.10;88.80;18.10;99378.00;;;;345909;28;88095;-93
2021/08/27 00:58:21;;;;;;;;;;;18.00;88.80;18.10;99385.00;;;;346198;28;88411;-94
2021/08/27 00:58:33;;;;;;;;;;;18.00;88.90;18.10;99381.00;;;;345917;28;87619;-93
2021/08/27 00:58:45;;;;;;;;;;;18.10;88.90;18.10;99378.00;;;;344760;28;89917;-94
2021/08/27 00:58:58;;;;;;;;;;;18.00;89.00;18.10;99374.00;;;;344503;28;86951;-93
2021/08/27 00:59:10;;;;;;;;;;;18.00;89.00;18.20;99380.00;;;;346108;28;90232;-93
2021/08/27 00:59:21;;;;;;;;;;;18.00;89.00;18.20;99380.00;;;;344661;28;88189;-93
2021/08/27 00:59:37;;;;;;;;;;;18.00;89.00;18.20;99372.00;;;;344700;28;89942;-92